createdAt,value
2023-05-10T00:01:05.000Z,181
2023-05-10T00:02:21.000Z,178
2023-05-10T00:03:38.000Z,174
2023-05-10T00:04:54.000Z,176
2023-05-10T00:06:10.000Z,172
2023-05-10T00:07:26.000Z,177
2023-05-10T00:08:43.000Z,176
2023-05-10T00:09:59.000Z,178
2023-05-10T00:11:15.000Z,178
2023-05-10T00:12:31.000Z,175
2023-05-10T00:13:48.000Z,180
2023-05-10T00:15:04.000Z,180
2023-05-10T00:16:19.000Z,178
2023-05-10T00:17:35.000Z,177
2023-05-10T00:18:51.000Z,176
2023-05-10T00:20:08.000Z,176
2023-05-10T00:21:24.000Z,178
2023-05-10T00:22:40.000Z,180
2023-05-10T00:23:56.000Z,178
2023-05-10T00:25:13.000Z,177
2023-05-10T00:26:29.000Z,178
2023-05-10T00:27:45.000Z,177
2023-05-10T00:29:01.000Z,173
2023-05-10T00:30:18.000Z,177
2023-05-10T00:31:34.000Z,181
2023-05-10T00:32:49.000Z,181
2023-05-10T00:34:04.000Z,188
2023-05-10T00:35:20.000Z,188
2023-05-10T00:36:36.000Z,186
2023-05-10T00:37:52.000Z,189
2023-05-10T00:39:08.000Z,188
2023-05-10T00:40:25.000Z,187
2023-05-10T00:41:41.000Z,188
2023-05-10T00:42:57.000Z,185
2023-05-10T00:44:13.000Z,186
2023-05-10T00:45:29.000Z,185
2023-05-10T00:46:46.000Z,186
2023-05-10T00:48:02.000Z,186
2023-05-10T00:49:18.000Z,186
2023-05-10T00:50:34.000Z,177
2023-05-10T00:51:50.000Z,178
2023-05-10T00:53:06.000Z,181
2023-05-10T00:54:22.000Z,176
2023-05-10T00:55:38.000Z,178
2023-05-10T00:56:55.000Z,179
2023-05-10T00:58:11.000Z,178
2023-05-10T00:59:26.000Z,178
2023-05-10T01:00:41.000Z,178
2023-05-10T01:01:57.000Z,178
2023-05-10T01:03:13.000Z,178
2023-05-10T01:04:29.000Z,178
2023-05-10T01:05:45.000Z,177
2023-05-10T01:07:02.000Z,173
2023-05-10T01:08:18.000Z,177
2023-05-10T01:09:34.000Z,174
2023-05-10T01:10:50.000Z,175
2023-05-10T01:12:06.000Z,174
2023-05-10T01:13:23.000Z,173
2023-05-10T01:14:39.000Z,180
2023-05-10T01:15:55.000Z,178
2023-05-10T01:17:11.000Z,176
2023-05-10T01:18:27.000Z,173
2023-05-10T01:19:43.000Z,176
2023-05-10T01:20:59.000Z,181
2023-05-10T01:22:15.000Z,180
2023-05-10T01:23:32.000Z,178
2023-05-10T01:24:48.000Z,179
2023-05-10T01:26:03.000Z,184
2023-05-10T01:27:18.000Z,180
2023-05-10T01:28:35.000Z,183
2023-05-10T01:29:51.000Z,187
2023-05-10T01:31:07.000Z,174
2023-05-10T01:32:23.000Z,172
2023-05-10T01:33:40.000Z,184
2023-05-10T01:34:56.000Z,180
2023-05-10T01:36:12.000Z,178
2023-05-10T01:37:28.000Z,180
2023-05-10T01:38:44.000Z,181
2023-05-10T01:40:01.000Z,180
2023-05-10T01:41:17.000Z,183
2023-05-10T01:42:33.000Z,175
2023-05-10T01:43:48.000Z,179
2023-05-10T01:45:05.000Z,179
2023-05-10T01:46:21.000Z,175
2023-05-10T01:47:37.000Z,184
2023-05-10T01:48:53.000Z,183
2023-05-10T01:50:10.000Z,185
2023-05-10T01:51:25.000Z,181
2023-05-10T01:52:40.000Z,174
2023-05-10T01:53:55.000Z,171
2023-05-10T01:55:12.000Z,179
2023-05-10T01:56:28.000Z,175
2023-05-10T01:57:44.000Z,176
2023-05-10T01:59:00.000Z,179
2023-05-10T02:00:17.000Z,174
2023-05-10T02:01:33.000Z,169
2023-05-10T02:02:49.000Z,167
2023-05-10T02:04:05.000Z,171
2023-05-10T02:05:21.000Z,176
2023-05-10T02:06:38.000Z,172
2023-05-10T02:09:10.000Z,181
2023-05-10T02:10:25.000Z,182
2023-05-10T02:11:42.000Z,177
2023-05-10T02:12:58.000Z,184
2023-05-10T02:14:13.000Z,178
2023-05-10T02:15:29.000Z,180
2023-05-10T02:16:46.000Z,181
2023-05-10T02:18:02.000Z,179
2023-05-10T02:19:17.000Z,177
2023-05-10T02:20:32.000Z,179
2023-05-10T02:21:49.000Z,183
2023-05-10T02:23:05.000Z,176
2023-05-10T02:24:21.547Z,178
2023-05-10T02:25:37.000Z,179
2023-05-10T02:26:54.000Z,178
2023-05-10T02:28:10.000Z,179
2023-05-10T02:29:26.000Z,180
2023-05-10T02:30:42.000Z,182
2023-05-10T02:31:58.000Z,184
2023-05-10T02:33:15.000Z,181
2023-05-10T02:34:31.000Z,181
2023-05-10T02:35:47.000Z,180
2023-05-10T02:37:02.000Z,180
2023-05-10T02:38:19.000Z,178
2023-05-10T02:39:35.000Z,179
2023-05-10T02:40:51.000Z,179
2023-05-10T02:42:07.000Z,180
2023-05-10T02:43:24.000Z,184
2023-05-10T02:44:39.000Z,180
2023-05-10T02:45:54.000Z,180
2023-05-10T02:47:09.000Z,179
2023-05-10T02:48:26.000Z,178
2023-05-10T02:49:42.000Z,182
2023-05-10T02:50:58.000Z,174
2023-05-10T02:52:14.000Z,168
2023-05-10T02:53:31.000Z,179
2023-05-10T02:54:47.000Z,179
2023-05-10T02:56:03.000Z,176
2023-05-10T02:57:19.000Z,178
2023-05-10T02:58:35.000Z,180
2023-05-10T02:59:52.000Z,181
2023-05-10T03:01:08.000Z,178
2023-05-10T03:02:24.000Z,180
2023-05-10T03:03:39.000Z,179
2023-05-10T03:04:56.000Z,178
2023-05-10T03:06:12.000Z,178
2023-05-10T03:07:28.000Z,179
2023-05-10T03:08:44.000Z,181
2023-05-10T03:10:01.000Z,188
2023-05-10T03:11:17.000Z,194
2023-05-10T03:12:33.000Z,184
2023-05-10T03:13:49.000Z,183
2023-05-10T03:15:06.000Z,184
2023-05-10T03:16:22.000Z,182
2023-05-10T03:17:38.000Z,183
2023-05-10T03:18:54.000Z,183
2023-05-10T03:20:09.000Z,186
2023-05-10T03:21:26.000Z,186
2023-05-10T03:22:42.000Z,188
2023-05-10T03:23:57.000Z,185
2023-05-10T03:25:12.000Z,187
2023-05-10T03:26:29.000Z,194
2023-05-10T03:27:45.000Z,194
2023-05-10T03:29:01.000Z,194
2023-05-10T03:30:17.000Z,196
2023-05-10T03:31:34.000Z,197
2023-05-10T03:32:50.000Z,203
2023-05-10T03:34:06.000Z,206
2023-05-10T03:35:22.000Z,209
2023-05-10T03:36:39.000Z,165
2023-05-10T03:37:55.000Z,40
2023-05-10T03:39:11.000Z,44
2023-05-10T03:40:27.000Z,51
2023-05-10T03:41:42.000Z,56
2023-05-10T03:42:59.000Z,63
2023-05-10T03:44:15.000Z,69
2023-05-10T03:45:31.000Z,75
2023-05-10T03:46:47.000Z,84
2023-05-10T03:48:04.000Z,89
2023-05-10T03:49:19.000Z,98
2023-05-10T03:50:34.000Z,107
2023-05-10T03:51:49.000Z,115
2023-05-10T03:54:22.000Z,140
2023-05-10T03:55:38.000Z,154
2023-05-10T03:56:54.000Z,172
2023-05-10T03:58:11.000Z,190
2023-05-10T03:59:27.000Z,212
2023-05-10T04:00:43.000Z,234
2023-05-10T04:01:59.000Z,255
2023-05-10T04:03:16.000Z,277
2023-05-10T04:04:32.000Z,297
2023-05-10T04:05:48.000Z,320
2023-05-10T04:07:04.000Z,340
2023-05-10T04:08:20.000Z,358
2023-05-10T04:09:36.000Z,380
2023-05-10T04:10:52.000Z,399
2023-05-10T04:12:08.000Z,423
2023-05-10T04:13:24.000Z,453
2023-05-10T04:14:41.000Z,490
2023-05-10T04:15:56.000Z,535
2023-05-10T04:17:11.000Z,566
2023-05-10T04:18:27.000Z,591
2023-05-10T04:19:44.000Z,602
2023-05-10T04:21:00.000Z,595
2023-05-10T04:22:16.000Z,649
2023-05-10T04:23:32.000Z,663
2023-05-10T04:24:49.000Z,679
2023-05-10T04:26:05.000Z,657
2023-05-10T04:27:21.000Z,657
2023-05-10T04:28:37.000Z,602
2023-05-10T04:29:54.000Z,643
2023-05-10T04:31:10.000Z,674
2023-05-10T04:32:26.000Z,546
2023-05-10T04:33:41.000Z,636
2023-05-10T04:34:57.000Z,632
2023-05-10T04:36:14.000Z,841
2023-05-10T04:37:30.000Z,1042
2023-05-10T04:38:46.000Z,1143
2023-05-10T04:40:02.000Z,1226
2023-05-10T04:41:18.000Z,1298
2023-05-10T04:42:33.000Z,1379
2023-05-10T04:43:48.000Z,1470
2023-05-10T04:45:04.000Z,1542
2023-05-10T04:46:21.000Z,1594
2023-05-10T04:47:37.000Z,1659
2023-05-10T04:48:53.000Z,1701
2023-05-10T04:50:09.000Z,1751
2023-05-10T04:51:26.000Z,1825
2023-05-10T04:52:42.000Z,1877
2023-05-10T04:53:58.000Z,1913
2023-05-10T04:55:14.000Z,1954
2023-05-10T04:56:31.000Z,1970
2023-05-10T04:57:47.000Z,1945
2023-05-10T04:59:03.000Z,2019
2023-05-10T05:00:18.000Z,2080
2023-05-10T05:01:34.000Z,2129
2023-05-10T05:02:51.000Z,2121
2023-05-10T05:04:07.000Z,2088
2023-05-10T05:05:23.000Z,2072
2023-05-10T05:06:39.000Z,2057
2023-05-10T05:07:56.000Z,2011
2023-05-10T05:09:12.000Z,2066
2023-05-10T05:10:28.000Z,2269
2023-05-10T05:11:44.000Z,2437
2023-05-10T05:13:01.000Z,2581
2023-05-10T05:14:17.000Z,2813
2023-05-10T05:15:33.000Z,2860
2023-05-10T05:16:48.000Z,2513
2023-05-10T05:18:05.000Z,2804
2023-05-10T05:19:21.000Z,2669
2023-05-10T05:20:37.000Z,2901
2023-05-10T05:21:53.000Z,2966
2023-05-10T05:23:09.000Z,2799
2023-05-10T05:24:26.000Z,3517
2023-05-10T05:25:42.000Z,2891
2023-05-10T05:26:58.000Z,2769
2023-05-10T05:28:14.000Z,3029
2023-05-10T05:29:31.000Z,2750
2023-05-10T05:30:47.000Z,2222
2023-05-10T05:32:03.000Z,2590
2023-05-10T05:33:18.000Z,2462
2023-05-10T05:34:35.000Z,1973
2023-05-10T05:35:51.000Z,2538
2023-05-10T05:37:07.000Z,2030
2023-05-10T05:38:23.000Z,1925
2023-05-10T05:39:40.000Z,2593
2023-05-10T05:40:56.000Z,3149
2023-05-10T05:42:12.000Z,3207
2023-05-10T05:43:28.000Z,3309
2023-05-10T05:44:44.000Z,3722
2023-05-10T05:46:01.000Z,3685
2023-05-10T05:47:17.000Z,2988
2023-05-10T05:48:32.000Z,2564
2023-05-10T05:49:47.000Z,2946
2023-05-10T05:51:04.000Z,2949
2023-05-10T05:52:20.000Z,2216
2023-05-10T05:53:36.000Z,2943
2023-05-10T05:54:52.000Z,2900
2023-05-10T05:56:09.000Z,2924
2023-05-10T05:57:25.000Z,3939
2023-05-10T05:58:41.000Z,3111
2023-05-10T05:59:57.000Z,1817
2023-05-10T06:01:14.000Z,2929
2023-05-10T06:02:30.000Z,3268
2023-05-10T06:03:46.000Z,4242
2023-05-10T06:05:02.000Z,3605
2023-05-10T06:07:34.000Z,3208
2023-05-10T06:08:50.000Z,4820
2023-05-10T06:10:06.000Z,4180
2023-05-10T06:11:22.000Z,3755
2023-05-10T06:12:39.000Z,2917
2023-05-10T06:13:55.000Z,4244
2023-05-10T06:15:10.000Z,4329
2023-05-10T06:16:25.000Z,4559
2023-05-10T06:17:42.000Z,4719
2023-05-10T06:18:58.000Z,4402
2023-05-10T06:20:14.000Z,3867
2023-05-10T06:21:30.000Z,3406
2023-05-10T06:22:47.000Z,3008
2023-05-10T06:24:03.000Z,3274
2023-05-10T06:25:19.000Z,3362
2023-05-10T06:26:35.000Z,3134
2023-05-10T06:27:52.000Z,3753
2023-05-10T06:29:07.000Z,3891
2023-05-10T06:30:23.000Z,4090
2023-05-10T06:31:39.000Z,3687
2023-05-10T06:32:55.000Z,3878
2023-05-10T06:34:12.000Z,3331
2023-05-10T06:35:28.000Z,2764
2023-05-10T06:36:44.000Z,2199
2023-05-10T06:38:00.000Z,2517
2023-05-10T06:39:17.000Z,2465
2023-05-10T06:40:32.000Z,1916
2023-05-10T06:41:47.000Z,1560
2023-05-10T06:43:02.000Z,1694
2023-05-10T06:44:19.000Z,2518
2023-05-10T06:45:35.000Z,2380
2023-05-10T06:46:51.000Z,1919
2023-05-10T06:48:07.000Z,1365
2023-05-10T06:49:24.000Z,667
2023-05-10T06:50:40.000Z,2604
2023-05-10T06:51:56.000Z,2121
2023-05-10T06:53:12.000Z,1695
2023-05-10T06:54:29.000Z,1121
2023-05-10T06:55:45.000Z,637
2023-05-10T06:57:01.000Z,2952
2023-05-10T06:58:17.000Z,3924
2023-05-10T06:59:32.000Z,3642
2023-05-10T07:00:49.000Z,4611
2023-05-10T07:02:05.000Z,4357
2023-05-10T07:03:21.000Z,5038
2023-05-10T07:04:37.000Z,5021
2023-05-10T07:05:54.000Z,5412
2023-05-10T07:07:10.000Z,7088
2023-05-10T07:08:26.000Z,8762
2023-05-10T07:09:42.000Z,9822
2023-05-10T07:10:59.000Z,9368
2023-05-10T07:12:15.000Z,8824
2023-05-10T07:13:31.000Z,9547
2023-05-10T07:14:47.000Z,9943
2023-05-10T07:16:03.000Z,9340
2023-05-10T07:17:19.000Z,8853
2023-05-10T07:18:35.000Z,7128
2023-05-10T07:19:51.000Z,8423
2023-05-10T07:21:07.000Z,8664
2023-05-10T07:22:24.000Z,8576
2023-05-10T07:23:40.000Z,8423
2023-05-10T07:24:56.000Z,9574
2023-05-10T07:26:12.000Z,9755
2023-05-10T07:27:29.000Z,9322
2023-05-10T07:28:45.000Z,9731
2023-05-10T07:30:01.000Z,9860
2023-05-10T07:31:17.000Z,9243
2023-05-10T07:32:33.000Z,9778
2023-05-10T07:33:49.000Z,9553
2023-05-10T07:35:05.000Z,9670
2023-05-10T07:36:21.000Z,10303
2023-05-10T07:37:38.000Z,8135
2023-05-10T07:38:54.000Z,6589
2023-05-10T07:40:10.000Z,10170
2023-05-10T07:41:26.000Z,10002
2023-05-10T07:42:42.000Z,10059
2023-05-10T07:43:59.000Z,8263
2023-05-10T07:45:15.000Z,7960
2023-05-10T07:46:31.000Z,8440
2023-05-10T07:47:47.000Z,8364
2023-05-10T07:49:03.000Z,7342
2023-05-10T07:50:19.000Z,8690
2023-05-10T07:51:35.000Z,9740
2023-05-10T07:52:51.000Z,10467
2023-05-10T07:54:08.000Z,9535
2023-05-10T07:55:24.000Z,10829
2023-05-10T07:56:40.000Z,11055
2023-05-10T07:57:56.000Z,10009
2023-05-10T07:59:13.000Z,10013
2023-05-10T08:00:29.000Z,10670
2023-05-10T08:01:45.000Z,11454
2023-05-10T08:03:01.000Z,11065
2023-05-10T08:04:17.000Z,8925
2023-05-10T08:05:33.000Z,8721
2023-05-10T08:06:49.000Z,6991
2023-05-10T08:08:05.000Z,11581
2023-05-10T08:09:21.000Z,8698
2023-05-10T08:10:38.000Z,9588
2023-05-10T08:11:54.000Z,11628
2023-05-10T08:13:10.000Z,11735
2023-05-10T08:14:26.000Z,13304
2023-05-10T08:15:43.000Z,13361
2023-05-10T08:16:59.000Z,12158
2023-05-10T08:19:31.000Z,12647
2023-05-10T08:20:48.000Z,13087
2023-05-10T08:22:03.000Z,13237
2023-05-10T08:23:19.000Z,13380
2023-05-10T08:24:35.000Z,13143
2023-05-10T08:25:51.000Z,13167
2023-05-10T08:27:08.000Z,12979
2023-05-10T08:28:24.000Z,13328
2023-05-10T08:29:40.000Z,13780
2023-05-10T08:30:56.000Z,14761
2023-05-10T08:32:13.000Z,15418
2023-05-10T08:33:29.000Z,16430
2023-05-10T08:34:45.000Z,17377
2023-05-10T08:36:01.000Z,17805
2023-05-10T08:37:18.000Z,16303
2023-05-10T08:38:33.000Z,15806
2023-05-10T08:39:49.000Z,15086
2023-05-10T08:41:05.000Z,13353
2023-05-10T08:42:22.000Z,11021
2023-05-10T08:43:38.000Z,10285
2023-05-10T08:44:54.000Z,11584
2023-05-10T08:46:10.000Z,10545
2023-05-10T08:47:26.000Z,10937
2023-05-10T08:48:43.000Z,13423
2023-05-10T08:49:59.000Z,15916
2023-05-10T08:51:15.000Z,15873
2023-05-10T08:52:31.000Z,16744
2023-05-10T08:53:48.000Z,16972
2023-05-10T08:55:03.000Z,16524
2023-05-10T08:56:19.000Z,16136
2023-05-10T08:57:35.000Z,15281
2023-05-10T08:58:52.000Z,14531
2023-05-10T09:00:08.000Z,14499
2023-05-10T09:01:24.000Z,14208
2023-05-10T09:02:40.000Z,13495
2023-05-10T09:03:57.000Z,14237
2023-05-10T09:05:13.000Z,15740
2023-05-10T09:06:29.000Z,16775
2023-05-10T09:07:45.000Z,15281
2023-05-10T09:09:01.000Z,14813
2023-05-10T09:10:18.000Z,13064
2023-05-10T09:11:33.000Z,14966
2023-05-10T09:12:49.000Z,16480
2023-05-10T09:14:04.000Z,13265
2023-05-10T09:16:36.000Z,11800
2023-05-10T09:17:52.000Z,13568
2023-05-10T09:19:08.000Z,13929
2023-05-10T09:20:25.000Z,15788
2023-05-10T09:21:41.000Z,15678
2023-05-10T09:22:57.000Z,13783
2023-05-10T09:24:13.000Z,14240
2023-05-10T09:25:30.000Z,15169
2023-05-10T09:26:46.000Z,14655
2023-05-10T09:28:02.000Z,14752
2023-05-10T09:29:18.000Z,13766
2023-05-10T09:31:51.000Z,8250
2023-05-10T09:33:06.000Z,9824
2023-05-10T09:34:21.000Z,13616
2023-05-10T09:35:37.000Z,14908
2023-05-10T09:36:54.000Z,15170
2023-05-10T09:39:26.000Z,15572
2023-05-10T09:41:59.000Z,16703
2023-05-10T09:43:15.000Z,16480
2023-05-10T09:44:31.000Z,15919
2023-05-10T09:45:47.000Z,16390
2023-05-10T09:47:04.000Z,16283
2023-05-10T09:48:19.000Z,15236
2023-05-10T09:49:34.000Z,16697
2023-05-10T09:50:50.000Z,14718
2023-05-10T09:52:07.000Z,14520
2023-05-10T09:53:23.000Z,14906
2023-05-10T09:54:39.000Z,16015
2023-05-10T09:55:55.000Z,16691
2023-05-10T09:57:11.000Z,16190
2023-05-10T09:58:28.000Z,16633
2023-05-10T09:59:44.000Z,16805
2023-05-10T10:00:59.000Z,14565
2023-05-10T10:02:14.000Z,13156
2023-05-10T10:03:31.000Z,15531
2023-05-10T10:04:47.000Z,16063
2023-05-10T10:07:19.000Z,17563
2023-05-10T10:09:52.000Z,13332
2023-05-10T10:11:08.000Z,15179
2023-05-10T10:12:24.000Z,15750
2023-05-10T10:13:41.000Z,14473
2023-05-10T10:16:13.000Z,13764
2023-05-10T10:17:28.000Z,15153
2023-05-10T10:20:00.000Z,16867
2023-05-10T10:21:16.000Z,13556
2023-05-10T10:22:32.000Z,15076
2023-05-10T10:23:48.000Z,14682
2023-05-10T10:25:05.000Z,14318
2023-05-10T10:26:21.000Z,14732
2023-05-10T10:27:37.000Z,15726
2023-05-10T10:28:53.000Z,17221
2023-05-10T10:30:10.000Z,15398
2023-05-10T10:31:26.000Z,15507
2023-05-10T10:32:42.000Z,14801
2023-05-10T10:33:58.000Z,14952
2023-05-10T10:35:14.000Z,15320
2023-05-10T10:36:30.000Z,15647
2023-05-10T10:37:46.000Z,15849
2023-05-10T10:39:02.000Z,16670
2023-05-10T10:40:19.000Z,15796
2023-05-10T10:41:35.000Z,16839
2023-05-10T10:42:51.000Z,16708
2023-05-10T10:44:06.000Z,17188
2023-05-10T10:45:22.000Z,18310
2023-05-10T10:46:38.000Z,18802
2023-05-10T10:47:54.000Z,18908
2023-05-10T10:49:10.000Z,17881
2023-05-10T10:50:26.000Z,17711
2023-05-10T10:51:43.000Z,16396
2023-05-10T10:52:59.000Z,14031
2023-05-10T10:54:15.000Z,12520
2023-05-10T10:55:31.000Z,11813
2023-05-10T10:58:03.000Z,11973
2023-05-10T10:59:18.000Z,12595
2023-05-10T11:00:34.000Z,14287
2023-05-10T11:01:51.000Z,15919
2023-05-10T11:03:07.000Z,15855
2023-05-10T11:04:23.000Z,16357
2023-05-10T11:05:39.000Z,17784
2023-05-10T11:06:56.000Z,17464
2023-05-10T11:08:12.000Z,12302
2023-05-10T11:09:28.000Z,13321
2023-05-10T11:10:43.000Z,19381
2023-05-10T11:11:59.000Z,16120
2023-05-10T11:13:15.000Z,13688
2023-05-10T11:14:31.000Z,15234
2023-05-10T11:15:47.000Z,14050
2023-05-10T11:17:03.000Z,15092
2023-05-10T11:18:20.000Z,14992
2023-05-10T11:19:36.000Z,13001
2023-05-10T11:20:52.000Z,10501
2023-05-10T11:22:08.000Z,8569
2023-05-10T11:23:25.000Z,7031
2023-05-10T11:24:41.000Z,7075
2023-05-10T11:25:57.000Z,7232
2023-05-10T11:27:13.000Z,7935
2023-05-10T11:28:29.000Z,7594
2023-05-10T11:29:45.000Z,6668
2023-05-10T11:31:01.000Z,6643
2023-05-10T11:32:17.000Z,7543
2023-05-10T11:33:34.000Z,9217
2023-05-10T11:34:50.000Z,8352
2023-05-10T11:36:06.000Z,7867
2023-05-10T11:38:38.000Z,9460
2023-05-10T11:39:55.000Z,11953
2023-05-10T11:41:11.000Z,16559
2023-05-10T11:42:27.000Z,19032
2023-05-10T11:43:43.000Z,19826
2023-05-10T11:44:59.000Z,19824
2023-05-10T11:46:15.000Z,19012
2023-05-10T11:47:31.000Z,17466
2023-05-10T11:48:47.000Z,15933
2023-05-10T11:50:04.000Z,15485
2023-05-10T11:51:20.000Z,16297
2023-05-10T11:52:36.000Z,15143
2023-05-10T11:53:52.000Z,14587
2023-05-10T11:55:08.000Z,12865
2023-05-10T11:56:25.000Z,11003
2023-05-10T11:57:41.000Z,16859
2023-05-10T11:58:57.000Z,16800
2023-05-10T12:00:13.000Z,15816
2023-05-10T12:01:29.000Z,15846
2023-05-10T12:02:45.000Z,14211
2023-05-10T12:04:01.000Z,17842
2023-05-10T12:06:34.000Z,15259
2023-05-10T12:07:50.000Z,13982
2023-05-10T12:09:06.000Z,15001
2023-05-10T12:10:22.000Z,14292
2023-05-10T12:11:39.000Z,12722
2023-05-10T12:12:55.000Z,13618
2023-05-10T12:14:11.000Z,16289
2023-05-10T12:15:27.000Z,16030
2023-05-10T12:16:43.000Z,17336
2023-05-10T12:17:59.000Z,14221
2023-05-10T12:19:15.000Z,14779
2023-05-10T12:20:31.000Z,13837
2023-05-10T12:21:47.000Z,15390
2023-05-10T12:23:04.000Z,12561
2023-05-10T12:24:20.000Z,15777
2023-05-10T12:25:36.000Z,14702
2023-05-10T12:26:52.000Z,15531
2023-05-10T12:28:09.000Z,17234
2023-05-10T12:29:25.000Z,18345
2023-05-10T12:30:41.000Z,15446
2023-05-10T12:31:57.000Z,11458
2023-05-10T12:33:14.000Z,8530
2023-05-10T12:34:29.000Z,8425
2023-05-10T12:35:45.000Z,7736
2023-05-10T12:37:01.000Z,6271
2023-05-10T12:39:34.000Z,13815
2023-05-10T12:42:06.000Z,18840
2023-05-10T12:43:22.000Z,17910
2023-05-10T12:44:39.000Z,16256
2023-05-10T12:45:55.000Z,14917
2023-05-10T12:47:11.000Z,14375
2023-05-10T12:48:27.000Z,14166
2023-05-10T12:49:44.000Z,12795
2023-05-10T12:50:59.000Z,17398
2023-05-10T12:52:15.000Z,18287
2023-05-10T12:54:48.000Z,17635
2023-05-10T12:56:03.000Z,19213
2023-05-10T12:57:18.000Z,20336
2023-05-10T12:58:34.000Z,19105
2023-05-10T12:59:51.000Z,17082
2023-05-10T13:01:07.000Z,14903
2023-05-10T13:02:23.000Z,11977
2023-05-10T13:03:39.000Z,9756
2023-05-10T13:04:55.000Z,9303
2023-05-10T13:06:12.000Z,9111
2023-05-10T13:08:44.000Z,9113
2023-05-10T13:10:00.000Z,8794
2023-05-10T13:11:17.000Z,8529
2023-05-10T13:12:33.000Z,8390
2023-05-10T13:13:48.000Z,8301
2023-05-10T13:15:04.000Z,7827
2023-05-10T13:17:37.000Z,7037
2023-05-10T13:18:52.000Z,6969
2023-05-10T13:20:07.000Z,6795
2023-05-10T13:21:24.000Z,6808
2023-05-10T13:22:40.000Z,5684
2023-05-10T13:23:56.000Z,4396
2023-05-10T13:25:12.000Z,4310
2023-05-10T13:26:29.000Z,4448
2023-05-10T13:27:45.000Z,4747
2023-05-10T13:31:33.000Z,5051
2023-05-10T13:32:50.000Z,4976
2023-05-10T13:34:06.000Z,4984
2023-05-10T13:35:22.000Z,5192
2023-05-10T13:36:37.000Z,5511
2023-05-10T13:37:54.000Z,5976
2023-05-10T13:39:10.000Z,5870
2023-05-10T13:40:26.000Z,5909
2023-05-10T13:42:59.000Z,6556
2023-05-10T13:44:15.000Z,7347
2023-05-10T13:45:31.000Z,8064
2023-05-10T13:46:47.000Z,9349
2023-05-10T13:48:03.000Z,10368
2023-05-10T13:49:20.000Z,10661
2023-05-10T13:50:36.000Z,11227
2023-05-10T13:51:52.000Z,12018
2023-05-10T13:53:07.000Z,13165
2023-05-10T13:54:24.000Z,13779
2023-05-10T13:55:40.000Z,14240
2023-05-10T13:56:56.000Z,13321
2023-05-10T13:58:11.000Z,13811
2023-05-10T13:59:27.000Z,9758
2023-05-10T14:00:43.000Z,29320
2023-05-10T14:01:59.000Z,21106
2023-05-10T14:03:15.000Z,12473
2023-05-10T14:04:32.000Z,8922
2023-05-10T14:05:48.000Z,6886
2023-05-10T14:07:04.000Z,6042
2023-05-10T14:08:20.000Z,5727
2023-05-10T14:09:37.000Z,5666
2023-05-10T14:10:52.000Z,5892
2023-05-10T14:12:07.000Z,6659
2023-05-10T14:13:23.000Z,7069
2023-05-10T14:14:40.000Z,7488
2023-05-10T14:15:56.000Z,7721
2023-05-10T14:19:44.000Z,7995
2023-05-10T14:21:01.000Z,7518
2023-05-10T14:22:17.000Z,7707
2023-05-10T14:24:49.000Z,8112
2023-05-10T14:26:06.000Z,8104
2023-05-10T14:27:21.000Z,8947
2023-05-10T14:28:36.000Z,9364
2023-05-10T14:29:52.000Z,5420
2023-05-10T14:31:09.000Z,28150
2023-05-10T14:32:25.000Z,27468
2023-05-10T14:33:41.000Z,17698
2023-05-10T14:34:57.000Z,64614
2023-05-10T14:36:14.000Z,18027
2023-05-10T14:37:30.000Z,20371
2023-05-10T14:38:46.000Z,25570
2023-05-10T14:40:01.000Z,24584
2023-05-10T14:41:17.000Z,19270
2023-05-10T14:42:33.000Z,16518
2023-05-10T14:43:49.000Z,14877
2023-05-10T14:45:05.000Z,13955
2023-05-10T14:46:21.000Z,13368
2023-05-10T14:47:38.000Z,12853
2023-05-10T14:48:54.000Z,12477
2023-05-10T14:50:10.000Z,12984
2023-05-10T14:51:26.000Z,14181
2023-05-10T14:52:43.000Z,14060
2023-05-10T14:53:59.000Z,6715
2023-05-10T14:55:15.000Z,26901
2023-05-10T14:56:31.000Z,14733
2023-05-10T14:57:47.000Z,21847
2023-05-10T14:59:02.000Z,7257
2023-05-10T15:00:18.000Z,64920
2023-05-10T15:01:34.000Z,21720
2023-05-10T15:02:51.000Z,17127
2023-05-10T15:04:07.000Z,17108
2023-05-10T15:05:23.000Z,16358
2023-05-10T15:06:39.000Z,14809
2023-05-10T15:07:55.000Z,24825
2023-05-10T15:09:12.000Z,16288
2023-05-10T15:10:28.000Z,14125
2023-05-10T15:11:44.000Z,19960
2023-05-10T15:13:00.000Z,32834
2023-05-10T15:14:17.000Z,20602
2023-05-10T15:15:32.000Z,22793
2023-05-10T15:16:48.000Z,18922
2023-05-10T15:18:04.000Z,7370
2023-05-10T15:19:21.000Z,68423
2023-05-10T15:21:53.000Z,22037
2023-05-10T15:24:26.000Z,26175
2023-05-10T15:25:42.000Z,78457
2023-05-10T15:26:58.000Z,72936
2023-05-10T15:28:14.000Z,40726
2023-05-10T15:29:30.000Z,30425
2023-05-10T15:30:47.000Z,21983
2023-05-10T15:32:02.000Z,23221
2023-05-10T15:33:18.000Z,28996
2023-05-10T15:34:34.000Z,21295
2023-05-10T15:35:51.000Z,19009
2023-05-10T15:37:07.000Z,21689
2023-05-10T15:38:23.000Z,31409
2023-05-10T15:39:39.000Z,22165
2023-05-10T15:40:56.000Z,28991
2023-05-10T15:42:12.000Z,72221
2023-05-10T15:43:28.000Z,36905
2023-05-10T15:44:44.000Z,26894
2023-05-10T15:46:01.000Z,21855
2023-05-10T15:47:17.000Z,28251
2023-05-10T15:48:32.000Z,24631
2023-05-10T15:49:48.000Z,32722
2023-05-10T15:51:04.000Z,35033
2023-05-10T15:52:21.000Z,26986
2023-05-10T15:53:37.000Z,30984
2023-05-10T15:54:53.000Z,32380
2023-05-10T15:56:09.000Z,21643
2023-05-10T15:57:26.000Z,25709
2023-05-10T15:58:42.000Z,25769
2023-05-10T15:59:58.000Z,28396
2023-05-10T16:01:14.000Z,28435
2023-05-10T16:02:31.000Z,24052
2023-05-10T16:03:46.000Z,18933
2023-05-10T16:05:01.000Z,22125
2023-05-10T16:06:17.000Z,14815
2023-05-10T16:07:34.000Z,9898
2023-05-10T16:08:50.000Z,11428
2023-05-10T16:10:06.000Z,23236
2023-05-10T16:11:22.000Z,24372
2023-05-10T16:15:11.000Z,26549
2023-05-10T16:16:27.000Z,7537
2023-05-10T16:17:43.000Z,25431
2023-05-10T16:18:59.000Z,6806
2023-05-10T16:20:14.000Z,26337
2023-05-10T16:21:30.000Z,23284
2023-05-10T16:22:46.000Z,28772
2023-05-10T16:24:03.000Z,30446
2023-05-10T16:25:19.000Z,8156
2023-05-10T16:26:35.000Z,24970
2023-05-10T16:27:51.000Z,25482
2023-05-10T16:29:08.000Z,22968
2023-05-10T16:30:24.000Z,14184
2023-05-10T16:31:39.000Z,12424
2023-05-10T16:32:54.000Z,10953
2023-05-10T16:34:11.000Z,9911
2023-05-10T16:35:27.000Z,8796
2023-05-10T16:36:43.000Z,8628
2023-05-10T16:37:59.000Z,9563
2023-05-10T16:40:32.000Z,8635
2023-05-10T16:41:48.000Z,12002
2023-05-10T16:43:04.000Z,14233
2023-05-10T16:44:20.000Z,21479
2023-05-10T16:45:37.000Z,18933
2023-05-10T16:46:53.000Z,15294
2023-05-10T16:48:09.000Z,12735
2023-05-10T16:49:24.000Z,16842
2023-05-10T16:50:41.000Z,16121
2023-05-10T16:53:13.000Z,14643
2023-05-10T16:54:28.000Z,18029
2023-05-10T16:55:44.000Z,15423
2023-05-10T16:57:00.000Z,14432
2023-05-10T16:58:16.000Z,13983
2023-05-10T16:59:32.000Z,15068
2023-05-10T17:00:49.000Z,14732
2023-05-10T17:02:05.000Z,10639
2023-05-10T17:03:21.000Z,7353
2023-05-10T17:05:53.000Z,14644
2023-05-10T17:07:10.000Z,9498
2023-05-10T17:08:26.000Z,12429
2023-05-10T17:09:42.000Z,7494
2023-05-10T17:10:58.000Z,11396
2023-05-10T17:12:14.000Z,9241
2023-05-10T17:13:30.000Z,9006
2023-05-10T17:14:46.000Z,8556
2023-05-10T17:16:02.000Z,8104
2023-05-10T17:18:35.000Z,6292
2023-05-10T17:19:50.000Z,7850
2023-05-10T17:21:05.000Z,9480
2023-05-10T17:22:22.000Z,9781
2023-05-10T17:23:38.000Z,7909
2023-05-10T17:24:54.000Z,9718
2023-05-10T17:26:10.000Z,10420
2023-05-10T17:27:27.000Z,12290
2023-05-10T17:28:43.000Z,14156
2023-05-10T17:29:59.000Z,12259
2023-05-10T17:31:15.000Z,12426
2023-05-10T17:32:30.000Z,10091